sensor_id;sensor_type;location;lat;lon;timestamp;P1;durP1;ratioP1;P2;durP2;ratioP2
22129;SDS011;11231;50.746;4.272;2023-05-14T00:00:54;142.30;;;69.80;;
22129;SDS011;11231;50.746;4.272;2023-05-14T00:03:19;142.70;;;70.80;;
22129;SDS011;11231;50.746;4.272;2023-05-14T00:05:46;151.80;;;71.03;;
22129;SDS011;11231;50.746;4.272;2023-05-14T00:08:12;139.53;;;68.23;;
22129;SDS011;11231;50.746;4.272;2023-05-14T00:10:38;145.07;;;69.73;;
22129;SDS011;11231;50.746;4.272;2023-05-14T00:13:04;150.03;;;69.90;;
22129;SDS011;11231;50.746;4.272;2023-05-14T00:15:30;145.60;;;69.20;;
22129;SDS011;11231;50.746;4.272;2023-05-14T00:17:56;156.93;;;72.83;;
22129;SDS011;11231;50.746;4.272;2023-05-14T00:20:21;148.83;;;71.60;;
22129;SDS011;11231;50.746;4.272;2023-05-14T00:22:47;144.53;;;71.30;;
22129;SDS011;11231;50.746;4.272;2023-05-14T00:25:13;159.33;;;73.27;;
22129;SDS011;11231;50.746;4.272;2023-05-14T00:27:39;147.97;;;72.40;;
22129;SDS011;11231;50.746;4.272;2023-05-14T00:30:05;152.83;;;72.27;;
22129;SDS011;11231;50.746;4.272;2023-05-14T00:32:31;157.77;;;74.07;;
22129;SDS011;11231;50.746;4.272;2023-05-14T00:34:58;150.67;;;72.43;;
22129;SDS011;11231;50.746;4.272;2023-05-14T00:37:24;144.43;;;68.93;;
22129;SDS011;11231;50.746;4.272;2023-05-14T00:39:49;147.77;;;71.10;;
22129;SDS011;11231;50.746;4.272;2023-05-14T00:42:15;146.20;;;69.80;;
22129;SDS011;11231;50.746;4.272;2023-05-14T00:44:41;156.30;;;72.70;;
22129;SDS011;11231;50.746;4.272;2023-05-14T00:47:07;159.50;;;75.40;;
22129;SDS011;11231;50.746;4.272;2023-05-14T00:49:33;162.00;;;73.57;;
22129;SDS011;11231;50.746;4.272;2023-05-14T00:51:59;154.83;;;73.17;;
22129;SDS011;11231;50.746;4.272;2023-05-14T00:54:26;162.47;;;73.90;;
22129;SDS011;11231;50.746;4.272;2023-05-14T00:56:53;147.37;;;73.77;;
22129;SDS011;11231;50.746;4.272;2023-05-14T00:59:20;158.60;;;75.07;;
22129;SDS011;11231;50.746;4.272;2023-05-14T01:01:46;151.43;;;71.77;;
22129;SDS011;11231;50.746;4.272;2023-05-14T01:04:11;152.17;;;74.10;;
22129;SDS011;11231;50.746;4.272;2023-05-14T01:07:08;159.40;;;73.13;;
22129;SDS011;11231;50.746;4.272;2023-05-14T01:09:42;158.80;;;73.40;;
22129;SDS011;11231;50.746;4.272;2023-05-14T01:12:34;148.73;;;71.57;;
22129;SDS011;11231;50.746;4.272;2023-05-14T01:15:09;155.07;;;72.37;;
22129;SDS011;11231;50.746;4.272;2023-05-14T01:17:47;152.57;;;71.07;;
22129;SDS011;11231;50.746;4.272;2023-05-14T01:20:19;148.70;;;68.90;;
22129;SDS011;11231;50.746;4.272;2023-05-14T01:22:46;151.37;;;70.10;;
22129;SDS011;11231;50.746;4.272;2023-05-14T01:25:12;147.97;;;69.70;;
22129;SDS011;11231;50.746;4.272;2023-05-14T01:30:30;138.77;;;65.43;;
22129;SDS011;11231;50.746;4.272;2023-05-14T01:33:05;146.63;;;67.53;;
22129;SDS011;11231;50.746;4.272;2023-05-14T01:35:35;145.50;;;68.40;;
22129;SDS011;11231;50.746;4.272;2023-05-14T01:38:02;146.33;;;68.57;;
22129;SDS011;11231;50.746;4.272;2023-05-14T01:40:31;158.70;;;68.87;;
22129;SDS011;11231;50.746;4.272;2023-05-14T01:42:59;140.43;;;68.53;;
22129;SDS011;11231;50.746;4.272;2023-05-14T01:45:25;144.33;;;68.47;;
22129;SDS011;11231;50.746;4.272;2023-05-14T01:47:52;146.00;;;68.13;;
22129;SDS011;11231;50.746;4.272;2023-05-14T01:50:18;158.53;;;69.00;;
22129;SDS011;11231;50.746;4.272;2023-05-14T01:52:44;145.70;;;67.50;;
22129;SDS011;11231;50.746;4.272;2023-05-14T01:55:10;142.70;;;67.27;;
22129;SDS011;11231;50.746;4.272;2023-05-14T01:57:36;153.97;;;69.27;;
22129;SDS011;11231;50.746;4.272;2023-05-14T02:00:01;145.53;;;67.70;;
22129;SDS011;11231;50.746;4.272;2023-05-14T02:02:39;149.40;;;65.83;;
22129;SDS011;11231;50.746;4.272;2023-05-14T02:05:06;149.93;;;67.17;;
22129;SDS011;11231;50.746;4.272;2023-05-14T02:07:33;146.87;;;67.87;;
22129;SDS011;11231;50.746;4.272;2023-05-14T02:09:59;146.13;;;66.23;;
22129;SDS011;11231;50.746;4.272;2023-05-14T02:12:26;157.10;;;70.50;;
22129;SDS011;11231;50.746;4.272;2023-05-14T02:14:52;143.97;;;66.27;;
22129;SDS011;11231;50.746;4.272;2023-05-14T02:17:18;140.70;;;64.77;;
22129;SDS011;11231;50.746;4.272;2023-05-14T02:19:44;139.87;;;64.63;;
22129;SDS011;11231;50.746;4.272;2023-05-14T02:22:10;125.20;;;61.00;;
22129;SDS011;11231;50.746;4.272;2023-05-14T02:24:36;131.27;;;62.90;;
22129;SDS011;11231;50.746;4.272;2023-05-14T02:27:03;136.17;;;66.07;;
22129;SDS011;11231;50.746;4.272;2023-05-14T02:29:29;134.40;;;64.70;;
22129;SDS011;11231;50.746;4.272;2023-05-14T02:31:55;137.73;;;63.63;;
22129;SDS011;11231;50.746;4.272;2023-05-14T02:34:21;135.87;;;63.40;;
22129;SDS011;11231;50.746;4.272;2023-05-14T02:36:49;136.43;;;64.40;;
22129;SDS011;11231;50.746;4.272;2023-05-14T02:39:14;136.37;;;63.27;;
22129;SDS011;11231;50.746;4.272;2023-05-14T02:41:43;142.47;;;63.60;;
22129;SDS011;11231;50.746;4.272;2023-05-14T02:44:09;128.87;;;62.47;;
22129;SDS011;11231;50.746;4.272;2023-05-14T02:46:35;126.70;;;60.37;;
22129;SDS011;11231;50.746;4.272;2023-05-14T02:49:00;136.73;;;62.13;;
22129;SDS011;11231;50.746;4.272;2023-05-14T02:51:27;123.40;;;59.93;;
22129;SDS011;11231;50.746;4.272;2023-05-14T02:53:56;125.90;;;59.50;;
22129;SDS011;11231;50.746;4.272;2023-05-14T02:56:21;127.33;;;62.23;;
22129;SDS011;11231;50.746;4.272;2023-05-14T02:58:47;124.60;;;59.97;;
22129;SDS011;11231;50.746;4.272;2023-05-14T03:01:13;122.07;;;58.60;;
22129;SDS011;11231;50.746;4.272;2023-05-14T03:03:39;129.63;;;60.23;;
22129;SDS011;11231;50.746;4.272;2023-05-14T03:06:05;128.57;;;60.03;;
22129;SDS011;11231;50.746;4.272;2023-05-14T03:08:31;121.57;;;58.03;;
22129;SDS011;11231;50.746;4.272;2023-05-14T03:10:57;131.00;;;60.80;;
22129;SDS011;11231;50.746;4.272;2023-05-14T03:13:23;120.60;;;58.07;;
22129;SDS011;11231;50.746;4.272;2023-05-14T03:15:49;125.43;;;58.93;;
22129;SDS011;11231;50.746;4.272;2023-05-14T03:18:19;121.90;;;58.73;;
22129;SDS011;11231;50.746;4.272;2023-05-14T03:20:45;129.23;;;59.50;;
22129;SDS011;11231;50.746;4.272;2023-05-14T03:23:11;123.17;;;57.80;;
22129;SDS011;11231;50.746;4.272;2023-05-14T03:25:37;124.17;;;59.93;;
22129;SDS011;11231;50.746;4.272;2023-05-14T03:28:03;123.03;;;55.83;;
22129;SDS011;11231;50.746;4.272;2023-05-14T03:30:29;118.20;;;58.13;;
22129;SDS011;11231;50.746;4.272;2023-05-14T03:32:54;119.03;;;56.70;;
22129;SDS011;11231;50.746;4.272;2023-05-14T03:35:20;124.83;;;57.60;;
22129;SDS011;11231;50.746;4.272;2023-05-14T03:37:46;117.87;;;57.90;;
22129;SDS011;11231;50.746;4.272;2023-05-14T03:40:12;114.63;;;57.53;;
22129;SDS011;11231;50.746;4.272;2023-05-14T03:42:38;121.37;;;58.30;;
22129;SDS011;11231;50.746;4.272;2023-05-14T03:45:04;123.80;;;57.70;;
22129;SDS011;11231;50.746;4.272;2023-05-14T03:47:31;118.70;;;57.67;;
22129;SDS011;11231;50.746;4.272;2023-05-14T03:49:59;123.70;;;55.73;;
22129;SDS011;11231;50.746;4.272;2023-05-14T03:52:24;119.93;;;55.73;;
22129;SDS011;11231;50.746;4.272;2023-05-14T03:54:50;117.63;;;57.07;;
22129;SDS011;11231;50.746;4.272;2023-05-14T03:57:16;116.63;;;56.23;;
22129;SDS011;11231;50.746;4.272;2023-05-14T03:59:42;117.77;;;56.07;;
22129;SDS011;11231;50.746;4.272;2023-05-14T04:02:08;121.87;;;56.80;;
22129;SDS011;11231;50.746;4.272;2023-05-14T04:04:34;116.73;;;54.13;;
22129;SDS011;11231;50.746;4.272;2023-05-14T04:07:00;114.80;;;54.57;;
22129;SDS011;11231;50.746;4.272;2023-05-14T04:09:27;108.87;;;54.77;;
22129;SDS011;11231;50.746;4.272;2023-05-14T04:11:53;109.37;;;54.77;;
22129;SDS011;11231;50.746;4.272;2023-05-14T04:14:19;115.90;;;56.80;;
22129;SDS011;11231;50.746;4.272;2023-05-14T04:16:46;115.77;;;55.00;;
22129;SDS011;11231;50.746;4.272;2023-05-14T04:19:12;111.10;;;55.43;;
22129;SDS011;11231;50.746;4.272;2023-05-14T04:21:39;113.13;;;55.20;;
22129;SDS011;11231;50.746;4.272;2023-05-14T04:24:05;118.03;;;55.47;;
22129;SDS011;11231;50.746;4.272;2023-05-14T04:26:31;110.57;;;55.53;;
22129;SDS011;11231;50.746;4.272;2023-05-14T04:28:57;120.23;;;56.07;;
22129;SDS011;11231;50.746;4.272;2023-05-14T04:31:27;117.87;;;58.23;;
22129;SDS011;11231;50.746;4.272;2023-05-14T04:33:53;116.10;;;57.33;;
22129;SDS011;11231;50.746;4.272;2023-05-14T04:36:19;110.73;;;55.53;;
22129;SDS011;11231;50.746;4.272;2023-05-14T04:38:45;109.83;;;55.00;;
22129;SDS011;11231;50.746;4.272;2023-05-14T04:41:11;113.43;;;56.80;;
22129;SDS011;11231;50.746;4.272;2023-05-14T04:43:36;107.77;;;55.73;;
22129;SDS011;11231;50.746;4.272;2023-05-14T04:46:03;110.97;;;54.73;;
22129;SDS011;11231;50.746;4.272;2023-05-14T04:48:29;106.53;;;54.47;;
22129;SDS011;11231;50.746;4.272;2023-05-14T04:50:55;108.73;;;55.73;;
22129;SDS011;11231;50.746;4.272;2023-05-14T04:53:21;111.10;;;55.30;;
22129;SDS011;11231;50.746;4.272;2023-05-14T04:55:47;115.30;;;54.73;;
22129;SDS011;11231;50.746;4.272;2023-05-14T04:58:13;106.93;;;55.53;;
22129;SDS011;11231;50.746;4.272;2023-05-14T05:00:39;106.77;;;54.20;;
22129;SDS011;11231;50.746;4.272;2023-05-14T05:03:05;106.77;;;55.80;;
22129;SDS011;11231;50.746;4.272;2023-05-14T05:05:31;109.30;;;54.90;;
22129;SDS011;11231;50.746;4.272;2023-05-14T05:07:57;108.50;;;54.37;;
22129;SDS011;11231;50.746;4.272;2023-05-14T05:10:23;99.40;;;52.77;;
22129;SDS011;11231;50.746;4.272;2023-05-14T05:12:49;99.93;;;53.53;;
22129;SDS011;11231;50.746;4.272;2023-05-14T05:15:15;102.17;;;52.43;;
22129;SDS011;11231;50.746;4.272;2023-05-14T05:17:40;105.67;;;52.10;;
22129;SDS011;11231;50.746;4.272;2023-05-14T05:20:07;95.87;;;51.93;;
22129;SDS011;11231;50.746;4.272;2023-05-14T05:22:34;96.80;;;50.73;;
22129;SDS011;11231;50.746;4.272;2023-05-14T05:25:01;95.43;;;49.83;;
22129;SDS011;11231;50.746;4.272;2023-05-14T05:27:30;88.80;;;48.90;;
22129;SDS011;11231;50.746;4.272;2023-05-14T05:29:57;88.80;;;47.60;;
22129;SDS011;11231;50.746;4.272;2023-05-14T05:32:25;86.17;;;48.70;;
22129;SDS011;11231;50.746;4.272;2023-05-14T05:34:51;90.23;;;48.93;;
22129;SDS011;11231;50.746;4.272;2023-05-14T05:37:17;93.40;;;49.67;;
22129;SDS011;11231;50.746;4.272;2023-05-14T05:39:43;90.30;;;47.73;;
22129;SDS011;11231;50.746;4.272;2023-05-14T05:42:08;87.27;;;49.00;;
22129;SDS011;11231;50.746;4.272;2023-05-14T05:44:34;96.93;;;50.50;;
22129;SDS011;11231;50.746;4.272;2023-05-14T05:47:01;90.30;;;48.57;;
22129;SDS011;11231;50.746;4.272;2023-05-14T05:49:27;89.57;;;46.73;;
22129;SDS011;11231;50.746;4.272;2023-05-14T05:51:53;89.07;;;48.17;;
22129;SDS011;11231;50.746;4.272;2023-05-14T05:54:19;87.17;;;47.37;;
22129;SDS011;11231;50.746;4.272;2023-05-14T05:56:47;84.43;;;46.10;;
22129;SDS011;11231;50.746;4.272;2023-05-14T05:59:12;94.73;;;49.93;;
22129;SDS011;11231;50.746;4.272;2023-05-14T06:01:38;98.70;;;51.17;;
22129;SDS011;11231;50.746;4.272;2023-05-14T06:04:05;96.53;;;50.93;;
22129;SDS011;11231;50.746;4.272;2023-05-14T06:06:31;100.30;;;51.87;;
22129;SDS011;11231;50.746;4.272;2023-05-14T06:08:57;104.33;;;52.87;;
22129;SDS011;11231;50.746;4.272;2023-05-14T06:11:23;108.53;;;54.93;;
22129;SDS011;11231;50.746;4.272;2023-05-14T06:13:48;105.20;;;52.27;;
22129;SDS011;11231;50.746;4.272;2023-05-14T06:16:14;103.43;;;52.17;;
22129;SDS011;11231;50.746;4.272;2023-05-14T06:18:40;101.20;;;51.20;;
22129;SDS011;11231;50.746;4.272;2023-05-14T06:21:06;95.47;;;50.23;;
22129;SDS011;11231;50.746;4.272;2023-05-14T06:23:32;98.67;;;49.43;;
22129;SDS011;11231;50.746;4.272;2023-05-14T06:25:58;94.47;;;48.90;;
22129;SDS011;11231;50.746;4.272;2023-05-14T06:28:32;89.53;;;46.10;;
22129;SDS011;11231;50.746;4.272;2023-05-14T06:30:58;90.10;;;47.37;;
22129;SDS011;11231;50.746;4.272;2023-05-14T06:33:24;81.37;;;45.53;;
22129;SDS011;11231;50.746;4.272;2023-05-14T06:35:55;77.10;;;43.73;;
22129;SDS011;11231;50.746;4.272;2023-05-14T06:38:22;86.40;;;45.70;;
22129;SDS011;11231;50.746;4.272;2023-05-14T06:40:52;84.27;;;45.60;;
22129;SDS011;11231;50.746;4.272;2023-05-14T06:43:20;84.07;;;45.43;;
22129;SDS011;11231;50.746;4.272;2023-05-14T06:45:50;80.63;;;43.27;;
22129;SDS011;11231;50.746;4.272;2023-05-14T06:48:22;80.40;;;46.27;;
22129;SDS011;11231;50.746;4.272;2023-05-14T06:50:48;79.10;;;43.87;;
22129;SDS011;11231;50.746;4.272;2023-05-14T06:53:14;84.07;;;45.40;;
22129;SDS011;11231;50.746;4.272;2023-05-14T06:55:40;81.47;;;41.90;;
22129;SDS011;11231;50.746;4.272;2023-05-14T06:58:06;81.83;;;42.87;;
22129;SDS011;11231;50.746;4.272;2023-05-14T07:00:36;77.17;;;41.70;;
22129;SDS011;11231;50.746;4.272;2023-05-14T07:03:02;84.57;;;43.03;;
22129;SDS011;11231;50.746;4.272;2023-05-14T07:05:27;82.30;;;41.80;;
22129;SDS011;11231;50.746;4.272;2023-05-14T07:07:53;77.23;;;41.40;;
22129;SDS011;11231;50.746;4.272;2023-05-14T07:10:19;87.93;;;43.17;;
22129;SDS011;11231;50.746;4.272;2023-05-14T07:12:46;88.43;;;43.83;;
22129;SDS011;11231;50.746;4.272;2023-05-14T07:15:12;96.50;;;48.23;;
22129;SDS011;11231;50.746;4.272;2023-05-14T07:17:37;104.83;;;50.13;;
22129;SDS011;11231;50.746;4.272;2023-05-14T07:20:03;100.70;;;50.60;;
22129;SDS011;11231;50.746;4.272;2023-05-14T07:22:30;99.73;;;50.97;;
22129;SDS011;11231;50.746;4.272;2023-05-14T07:25:00;99.07;;;50.80;;
22129;SDS011;11231;50.746;4.272;2023-05-14T07:27:47;106.30;;;52.00;;
22129;SDS011;11231;50.746;4.272;2023-05-14T07:30:13;105.23;;;52.87;;
22129;SDS011;11231;50.746;4.272;2023-05-14T07:32:42;102.30;;;51.50;;
22129;SDS011;11231;50.746;4.272;2023-05-14T07:35:11;103.47;;;51.07;;
22129;SDS011;11231;50.746;4.272;2023-05-14T07:37:37;102.93;;;50.90;;
22129;SDS011;11231;50.746;4.272;2023-05-14T07:40:07;94.47;;;48.90;;
22129;SDS011;11231;50.746;4.272;2023-05-14T07:42:33;98.40;;;50.00;;
22129;SDS011;11231;50.746;4.272;2023-05-14T07:44:59;87.00;;;47.13;;
22129;SDS011;11231;50.746;4.272;2023-05-14T07:47:25;91.67;;;48.17;;
22129;SDS011;11231;50.746;4.272;2023-05-14T07:49:54;89.03;;;47.47;;
22129;SDS011;11231;50.746;4.272;2023-05-14T07:52:21;86.27;;;45.63;;
22129;SDS011;11231;50.746;4.272;2023-05-14T07:54:47;82.23;;;46.77;;
22129;SDS011;11231;50.746;4.272;2023-05-14T07:57:23;79.17;;;46.27;;
22129;SDS011;11231;50.746;4.272;2023-05-14T07:59:50;80.23;;;44.50;;
22129;SDS011;11231;50.746;4.272;2023-05-14T08:02:16;79.30;;;45.50;;
22129;SDS011;11231;50.746;4.272;2023-05-14T08:04:42;86.93;;;48.37;;
22129;SDS011;11231;50.746;4.272;2023-05-14T08:07:08;81.43;;;44.83;;
22129;SDS011;11231;50.746;4.272;2023-05-14T08:09:34;84.87;;;46.13;;
22129;SDS011;11231;50.746;4.272;2023-05-14T08:12:00;80.37;;;45.43;;
22129;SDS011;11231;50.746;4.272;2023-05-14T08:14:26;80.00;;;45.73;;
22129;SDS011;11231;50.746;4.272;2023-05-14T08:16:52;77.53;;;45.23;;
22129;SDS011;11231;50.746;4.272;2023-05-14T08:19:18;89.63;;;49.60;;
22129;SDS011;11231;50.746;4.272;2023-05-14T08:21:44;82.33;;;47.70;;
22129;SDS011;11231;50.746;4.272;2023-05-14T08:24:10;79.67;;;46.47;;
22129;SDS011;11231;50.746;4.272;2023-05-14T08:26:36;77.33;;;46.60;;
22129;SDS011;11231;50.746;4.272;2023-05-14T08:29:05;75.43;;;45.50;;
22129;SDS011;11231;50.746;4.272;2023-05-14T08:31:31;89.97;;;49.80;;
22129;SDS011;11231;50.746;4.272;2023-05-14T08:33:57;88.20;;;50.00;;
22129;SDS011;11231;50.746;4.272;2023-05-14T08:36:23;68.80;;;42.73;;
22129;SDS011;11231;50.746;4.272;2023-05-14T08:38:48;70.77;;;42.60;;
22129;SDS011;11231;50.746;4.272;2023-05-14T08:41:19;66.27;;;39.73;;
22129;SDS011;11231;50.746;4.272;2023-05-14T08:46:26;60.63;;;38.30;;
22129;SDS011;11231;50.746;4.272;2023-05-14T08:52:06;52.43;;;34.13;;
22129;SDS011;11231;50.746;4.272;2023-05-14T08:54:34;53.37;;;33.60;;
22129;SDS011;11231;50.746;4.272;2023-05-14T08:57:03;55.23;;;34.33;;
22129;SDS011;11231;50.746;4.272;2023-05-14T08:59:30;51.67;;;34.10;;
22129;SDS011;11231;50.746;4.272;2023-05-14T09:01:57;50.03;;;31.07;;
22129;SDS011;11231;50.746;4.272;2023-05-14T09:04:32;50.67;;;33.23;;
22129;SDS011;11231;50.746;4.272;2023-05-14T09:07:05;48.13;;;31.13;;
22129;SDS011;11231;50.746;4.272;2023-05-14T09:09:35;46.60;;;30.87;;
22129;SDS011;11231;50.746;4.272;2023-05-14T09:12:02;47.13;;;31.50;;
22129;SDS011;11231;50.746;4.272;2023-05-14T09:14:28;45.00;;;30.20;;
22129;SDS011;11231;50.746;4.272;2023-05-14T09:16:54;49.40;;;29.60;;
22129;SDS011;11231;50.746;4.272;2023-05-14T09:19:21;45.93;;;31.40;;
22129;SDS011;11231;50.746;4.272;2023-05-14T09:21:48;51.13;;;32.37;;
22129;SDS011;11231;50.746;4.272;2023-05-14T09:24:18;42.63;;;29.80;;
22129;SDS011;11231;50.746;4.272;2023-05-14T09:26:48;43.27;;;30.73;;
22129;SDS011;11231;50.746;4.272;2023-05-14T09:29:15;45.90;;;29.40;;
22129;SDS011;11231;50.746;4.272;2023-05-14T09:31:41;47.33;;;30.57;;
22129;SDS011;11231;50.746;4.272;2023-05-14T09:34:07;43.23;;;28.87;;
22129;SDS011;11231;50.746;4.272;2023-05-14T09:36:33;46.13;;;29.57;;
22129;SDS011;11231;50.746;4.272;2023-05-14T09:38:59;43.63;;;29.97;;
22129;SDS011;11231;50.746;4.272;2023-05-14T09:41:28;41.13;;;28.93;;
22129;SDS011;11231;50.746;4.272;2023-05-14T09:43:53;37.50;;;26.47;;
22129;SDS011;11231;50.746;4.272;2023-05-14T09:46:21;37.33;;;26.50;;
22129;SDS011;11231;50.746;4.272;2023-05-14T09:48:47;38.13;;;28.20;;
22129;SDS011;11231;50.746;4.272;2023-05-14T09:51:14;39.43;;;27.70;;
22129;SDS011;11231;50.746;4.272;2023-05-14T09:53:42;36.00;;;26.33;;
22129;SDS011;11231;50.746;4.272;2023-05-14T09:56:08;37.80;;;26.37;;
22129;SDS011;11231;50.746;4.272;2023-05-14T09:58:34;37.57;;;26.73;;
22129;SDS011;11231;50.746;4.272;2023-05-14T10:01:00;36.87;;;26.43;;
22129;SDS011;11231;50.746;4.272;2023-05-14T10:03:27;38.63;;;26.50;;
22129;SDS011;11231;50.746;4.272;2023-05-14T10:05:55;37.63;;;26.17;;
22129;SDS011;11231;50.746;4.272;2023-05-14T10:08:34;34.60;;;25.97;;
22129;SDS011;11231;50.746;4.272;2023-05-14T10:11:02;34.57;;;26.33;;
22129;SDS011;11231;50.746;4.272;2023-05-14T10:13:36;31.90;;;24.87;;
22129;SDS011;11231;50.746;4.272;2023-05-14T10:16:13;32.70;;;25.07;;
22129;SDS011;11231;50.746;4.272;2023-05-14T10:18:45;36.67;;;25.90;;
22129;SDS011;11231;50.746;4.272;2023-05-14T10:21:16;36.30;;;26.07;;
22129;SDS011;11231;50.746;4.272;2023-05-14T10:23:45;33.97;;;23.73;;
22129;SDS011;11231;50.746;4.272;2023-05-14T10:26:11;30.13;;;23.00;;
22129;SDS011;11231;50.746;4.272;2023-05-14T10:28:37;30.83;;;24.17;;
22129;SDS011;11231;50.746;4.272;2023-05-14T10:31:04;32.05;;;24.10;;
22129;SDS011;11231;50.746;4.272;2023-05-14T10:33:30;31.27;;;24.35;;
22129;SDS011;11231;50.746;4.272;2023-05-14T10:36:14;31.17;;;23.27;;
22129;SDS011;11231;50.746;4.272;2023-05-14T10:38:44;31.67;;;22.15;;
22129;SDS011;11231;50.746;4.272;2023-05-14T10:41:14;29.60;;;21.40;;
22129;SDS011;11231;50.746;4.272;2023-05-14T10:43:42;27.35;;;21.00;;
22129;SDS011;11231;50.746;4.272;2023-05-14T10:46:09;30.75;;;21.33;;
22129;SDS011;11231;50.746;4.272;2023-05-14T10:48:38;28.13;;;20.80;;
22129;SDS011;11231;50.746;4.272;2023-05-14T10:51:06;25.42;;;20.20;;
22129;SDS011;11231;50.746;4.272;2023-05-14T10:53:35;26.20;;;18.90;;
22129;SDS011;11231;50.746;4.272;2023-05-14T10:56:03;26.80;;;19.75;;
22129;SDS011;11231;50.746;4.272;2023-05-14T10:58:30;25.98;;;19.42;;
22129;SDS011;11231;50.746;4.272;2023-05-14T11:00:58;27.15;;;21.20;;
22129;SDS011;11231;50.746;4.272;2023-05-14T11:03:29;29.13;;;22.58;;
22129;SDS011;11231;50.746;4.272;2023-05-14T11:05:58;29.08;;;22.52;;
22129;SDS011;11231;50.746;4.272;2023-05-14T11:08:27;25.77;;;20.55;;
22129;SDS011;11231;50.746;4.272;2023-05-14T11:10:55;29.48;;;21.77;;
22129;SDS011;11231;50.746;4.272;2023-05-14T11:13:21;28.55;;;21.27;;
22129;SDS011;11231;50.746;4.272;2023-05-14T11:15:47;28.55;;;21.92;;
22129;SDS011;11231;50.746;4.272;2023-05-14T11:18:24;27.23;;;20.77;;
22129;SDS011;11231;50.746;4.272;2023-05-14T11:20:52;27.77;;;21.23;;
22129;SDS011;11231;50.746;4.272;2023-05-14T11:23:18;30.95;;;22.63;;
22129;SDS011;11231;50.746;4.272;2023-05-14T11:25:47;26.40;;;21.35;;
22129;SDS011;11231;50.746;4.272;2023-05-14T11:28:12;24.92;;;20.17;;
22129;SDS011;11231;50.746;4.272;2023-05-14T11:30:38;28.77;;;21.40;;
22129;SDS011;11231;50.746;4.272;2023-05-14T11:33:04;26.15;;;20.63;;
22129;SDS011;11231;50.746;4.272;2023-05-14T11:35:30;25.67;;;21.98;;
22129;SDS011;11231;50.746;4.272;2023-05-14T11:37:56;29.10;;;22.67;;
22129;SDS011;11231;50.746;4.272;2023-05-14T11:40:22;30.10;;;22.08;;
22129;SDS011;11231;50.746;4.272;2023-05-14T11:42:51;25.63;;;21.05;;
22129;SDS011;11231;50.746;4.272;2023-05-14T11:45:24;29.02;;;21.92;;
22129;SDS011;11231;50.746;4.272;2023-05-14T11:47:51;25.15;;;20.85;;
22129;SDS011;11231;50.746;4.272;2023-05-14T11:50:21;30.42;;;22.15;;
22129;SDS011;11231;50.746;4.272;2023-05-14T11:52:47;25.13;;;20.13;;
22129;SDS011;11231;50.746;4.272;2023-05-14T11:55:15;24.92;;;20.23;;
22129;SDS011;11231;50.746;4.272;2023-05-14T11:57:41;26.55;;;19.48;;
22129;SDS011;11231;50.746;4.272;2023-05-14T12:00:08;25.30;;;19.70;;
22129;SDS011;11231;50.746;4.272;2023-05-14T12:02:48;26.27;;;19.55;;
22129;SDS011;11231;50.746;4.272;2023-05-14T12:05:15;23.60;;;18.70;;
22129;SDS011;11231;50.746;4.272;2023-05-14T12:07:44;22.77;;;20.02;;
22129;SDS011;11231;50.746;4.272;2023-05-14T12:10:11;26.70;;;19.27;;
22129;SDS011;11231;50.746;4.272;2023-05-14T12:12:37;23.00;;;17.95;;
22129;SDS011;11231;50.746;4.272;2023-05-14T12:15:10;19.98;;;16.00;;
22129;SDS011;11231;50.746;4.272;2023-05-14T12:17:37;25.42;;;18.65;;
22129;SDS011;11231;50.746;4.272;2023-05-14T12:20:04;26.27;;;19.85;;
22129;SDS011;11231;50.746;4.272;2023-05-14T12:22:34;26.50;;;19.35;;
22129;SDS011;11231;50.746;4.272;2023-05-14T12:25:00;27.88;;;21.10;;
22129;SDS011;11231;50.746;4.272;2023-05-14T12:27:27;29.45;;;20.30;;
22129;SDS011;11231;50.746;4.272;2023-05-14T12:30:02;27.08;;;19.85;;
22129;SDS011;11231;50.746;4.272;2023-05-14T12:32:36;26.73;;;19.50;;
22129;SDS011;11231;50.746;4.272;2023-05-14T12:35:05;26.02;;;19.13;;
22129;SDS011;11231;50.746;4.272;2023-05-14T12:37:40;27.48;;;18.15;;
22129;SDS011;11231;50.746;4.272;2023-05-14T12:40:07;26.38;;;18.90;;
22129;SDS011;11231;50.746;4.272;2023-05-14T12:42:33;25.45;;;18.73;;
22129;SDS011;11231;50.746;4.272;2023-05-14T12:44:59;28.30;;;18.80;;
22129;SDS011;11231;50.746;4.272;2023-05-14T12:47:29;29.47;;;19.93;;
22129;SDS011;11231;50.746;4.272;2023-05-14T12:49:56;28.70;;;19.30;;
22129;SDS011;11231;50.746;4.272;2023-05-14T12:52:22;26.33;;;19.05;;
22129;SDS011;11231;50.746;4.272;2023-05-14T12:54:48;28.77;;;19.53;;
22129;SDS011;11231;50.746;4.272;2023-05-14T12:57:14;29.23;;;20.40;;
22129;SDS011;11231;50.746;4.272;2023-05-14T12:59:40;24.93;;;17.47;;
22129;SDS011;11231;50.746;4.272;2023-05-14T13:02:06;23.97;;;17.27;;
22129;SDS011;11231;50.746;4.272;2023-05-14T13:04:32;25.77;;;18.67;;
22129;SDS011;11231;50.746;4.272;2023-05-14T13:06:58;28.07;;;19.23;;
22129;SDS011;11231;50.746;4.272;2023-05-14T13:09:24;27.67;;;18.40;;
22129;SDS011;11231;50.746;4.272;2023-05-14T13:11:52;26.80;;;20.00;;
22129;SDS011;11231;50.746;4.272;2023-05-14T13:14:18;27.70;;;19.23;;
22129;SDS011;11231;50.746;4.272;2023-05-14T13:16:43;26.73;;;19.17;;
22129;SDS011;11231;50.746;4.272;2023-05-14T13:19:09;26.77;;;18.57;;
22129;SDS011;11231;50.746;4.272;2023-05-14T13:21:35;27.63;;;18.40;;
22129;SDS011;11231;50.746;4.272;2023-05-14T13:24:01;28.70;;;20.20;;
22129;SDS011;11231;50.746;4.272;2023-05-14T13:26:27;24.30;;;18.30;;
22129;SDS011;11231;50.746;4.272;2023-05-14T13:28:53;27.63;;;17.47;;
22129;SDS011;11231;50.746;4.272;2023-05-14T13:31:18;24.80;;;18.27;;
22129;SDS011;11231;50.746;4.272;2023-05-14T13:33:44;23.73;;;18.93;;
22129;SDS011;11231;50.746;4.272;2023-05-14T13:36:11;25.83;;;18.13;;
22129;SDS011;11231;50.746;4.272;2023-05-14T13:38:38;23.77;;;18.03;;
22129;SDS011;11231;50.746;4.272;2023-05-14T13:41:04;24.80;;;16.97;;
22129;SDS011;11231;50.746;4.272;2023-05-14T13:43:31;25.10;;;17.37;;
22129;SDS011;11231;50.746;4.272;2023-05-14T13:45:58;23.70;;;16.87;;
22129;SDS011;11231;50.746;4.272;2023-05-14T13:48:25;25.17;;;17.17;;
22129;SDS011;11231;50.746;4.272;2023-05-14T13:50:51;25.00;;;16.10;;
22129;SDS011;11231;50.746;4.272;2023-05-14T13:53:18;23.73;;;16.60;;
22129;SDS011;11231;50.746;4.272;2023-05-14T13:55:44;25.60;;;17.47;;
22129;SDS011;11231;50.746;4.272;2023-05-14T13:58:10;21.93;;;16.20;;
22129;SDS011;11231;50.746;4.272;2023-05-14T14:00:37;23.50;;;16.67;;
22129;SDS011;11231;50.746;4.272;2023-05-14T14:03:03;20.73;;;15.07;;
22129;SDS011;11231;50.746;4.272;2023-05-14T14:05:29;24.30;;;16.13;;
22129;SDS011;11231;50.746;4.272;2023-05-14T14:07:56;22.57;;;15.53;;
22129;SDS011;11231;50.746;4.272;2023-05-14T14:10:22;22.53;;;15.27;;
22129;SDS011;11231;50.746;4.272;2023-05-14T14:12:48;22.73;;;15.60;;
22129;SDS011;11231;50.746;4.272;2023-05-14T14:15:14;23.17;;;16.57;;
22129;SDS011;11231;50.746;4.272;2023-05-14T14:17:40;23.93;;;17.03;;
22129;SDS011;11231;50.746;4.272;2023-05-14T14:20:08;21.80;;;15.83;;
22129;SDS011;11231;50.746;4.272;2023-05-14T14:22:34;21.83;;;16.07;;
22129;SDS011;11231;50.746;4.272;2023-05-14T14:25:01;21.40;;;16.97;;